Shaw Air Force Base
KSSC : now visible

Airfield :











YOU CAN JOIN US ON...

 
LOGIN :

Register | Disclaimer

   EN    FR    IT 

 









Legend :    VFR   Marginal VFR   IFR   Intensive IFR   Very Intensive IFR
Visi :
Ceiling :
>= 8 km
>= 3000ft
5 to 8 km
1000 to 3000 ft
1500m to 5 km
500 to 1000 ft
800 to 1500m
200 to 500 ft
< 800m
< 200 ft
Symbols :   Thunderstorms  Fog  Heavy snow  Heavy precipitations  Wind > 20 kt






- Airport Elevation : 241 ft


KSSC - Shaw Air Force Base

CURRENT METAR :
  • 260456Z AUTO 24007KT 10SM CLR 19/18 A2971 RMK AO2 SLP060 T01940175 402730168 $

EXPIRED METARs :
  • 260356Z AUTO 24011KT 10SM CLR 20/18 A2972 RMK AO2 RAE15RAB15E15 SLP064 P0000 T02040176 $
  • 260315Z AUTO 24014G20KT 8SM SCT075 BKN095 22/20 A2972 RMK AO2 RAE15RAB15 SLP064 $
  • 260306Z AUTO 24011KT 8SM -RA FEW055 SCT080 OVC095 22/20 A2972 RMK AO2 WSHFT 0251 SLP064 $
  • 260256Z AUTO 21012KT 10SM -RA FEW055 BKN090 22/20 A2971 RMK AO2 RAB55 SLP060 P0000 60000 T02230200 57007 $

TAF TAF KSSC
Valid from the 25 at 23:00 until the 27 at 05:00 UTC


252300Z 2523/2705 20006KT 9999 SCT025 SCT100 QNH2971INS
TEMPO 2602/2604 25010G15KT 8000 -SHRA BKN020
BECMG 2604/2605 26009KT 9999 FEW010 SCT025 SCT100 QNH2971INS
BECMG 2613/2614 31010G15KT 9999 FEW045 QNH2974INS
BECMG 2621/2622 30012G20KT 9999 SKC QNH2974INS
BECMG 2703/2704 35009KT 9999 SKC QNH2983INS TX26/2620Z TN13/2612Z
KZJX FIR / North America



MET'MAP, your aeronautical weather chart ! - Copyright ORBIFLY December 2007 - Disclaimer

ORBIFLY MET'MAP TEAM :

Programming & Development : Alexandra Zaïnal
Concept & original design : Baudouin d'Aumeries
Assistance for programming : Marc-Olivier Méhu
Technical & hardware support : Manuel Goepfert

Contact : metmap@orbifly.com




SOURCES & CREDITS :

   NOAA       Earth
Advisory